createdAt,value
2016-10-07T00:00:05.325Z,90.93
2016-10-07T00:00:47.106Z,90.93
2016-10-07T00:01:28.709Z,91.03
2016-10-07T00:02:10.520Z,90.93
2016-10-07T00:02:52.047Z,90.93
2016-10-07T00:03:33.797Z,90.93
2016-10-07T00:04:15.513Z,91.13
2016-10-07T00:04:57.194Z,91.03
2016-10-07T00:05:38.972Z,91.13
2016-10-07T00:06:20.478Z,90.84
2016-10-07T00:08:15.202Z,91.03
2016-10-07T00:08:56.651Z,90.84
2016-10-07T00:09:38.330Z,91.13
2016-10-07T00:10:20.095Z,90.93
2016-10-07T00:11:01.815Z,91.03
2016-10-07T00:11:43.515Z,90.93
2016-10-07T00:12:25.206Z,91.03
2016-10-07T00:13:07.015Z,90.93
2016-10-07T00:13:48.763Z,91.03
2016-10-07T00:14:30.533Z,90.93
2016-10-07T00:15:12.276Z,90.93
2016-10-07T00:15:54.014Z,90.93
2016-10-07T00:16:35.862Z,91.22
2016-10-07T00:17:17.693Z,91.03
2016-10-07T00:17:59.368Z,90.93
2016-10-07T00:18:41.036Z,91.13
2016-10-07T00:19:22.823Z,90.93
2016-10-07T00:20:04.393Z,91.13
2016-10-07T00:20:46.175Z,90.93
2016-10-07T00:22:46.246Z,91.03
2016-10-07T00:23:28.006Z,91.13
2016-10-07T00:24:09.708Z,90.84
2016-10-07T00:24:51.369Z,90.93
2016-10-07T00:25:33.056Z,90.84
2016-10-07T00:26:14.819Z,90.93
2016-10-07T00:26:56.311Z,91.03
2016-10-07T00:27:38.171Z,91.13
2016-10-07T00:28:19.921Z,91.13
2016-10-07T00:29:01.627Z,90.74
2016-10-07T00:29:43.357Z,91.13
2016-10-07T00:31:38.095Z,91.03
2016-10-07T00:32:19.881Z,91.13
2016-10-07T00:34:09.271Z,91.13
2016-10-07T00:34:51.017Z,91.13
2016-10-07T00:37:06.359Z,90.93
2016-10-07T00:39:01.037Z,90.74
2016-10-07T00:39:42.744Z,91.13
2016-10-07T00:40:24.356Z,91.13
2016-10-07T00:41:06.168Z,90.93
2016-10-07T00:41:47.885Z,91.13
2016-10-07T00:42:30.206Z,91.13
2016-10-07T00:43:12.172Z,90.93
2016-10-07T00:43:53.943Z,91.03
2016-10-07T00:44:35.651Z,90.93
2016-10-07T00:45:17.409Z,90.93
2016-10-07T00:45:59.085Z,90.93
2016-10-07T00:46:40.808Z,91.13
2016-10-07T00:47:22.524Z,91.03
2016-10-07T00:48:04.257Z,91.13
2016-10-07T00:50:19.669Z,90.74
2016-10-07T00:52:14.410Z,91.22
2016-10-07T00:52:56.126Z,90.93
2016-10-07T00:53:37.888Z,91.5
2016-10-07T00:54:19.620Z,91.41
2016-10-07T00:55:01.264Z,91.03
2016-10-07T00:55:43.007Z,91.13
2016-10-07T00:56:24.765Z,91.13
2016-10-07T00:57:05.478Z,91.41
2016-10-07T00:57:46.021Z,91.5
2016-10-07T00:58:26.560Z,91.31
2016-10-07T00:59:07.105Z,91.22
2016-10-07T00:59:47.644Z,91.22
2016-10-07T01:00:28.180Z,91.22
2016-10-07T01:01:08.722Z,91.41
2016-10-07T01:01:49.248Z,91.41
2016-10-07T01:02:29.777Z,91.41
2016-10-07T01:03:10.323Z,91.41
2016-10-07T01:03:50.864Z,91.31
2016-10-07T01:04:31.404Z,91.22
2016-10-07T01:05:11.945Z,91.31
2016-10-07T01:05:52.491Z,91.22
2016-10-07T01:06:33.027Z,91.22
2016-10-07T01:07:13.551Z,91.41
2016-10-07T01:07:54.080Z,91.22
2016-10-07T01:08:34.629Z,91.41
2016-10-07T01:09:15.168Z,91.22
2016-10-07T01:09:55.709Z,91.41
2016-10-07T01:10:36.251Z,91.31
2016-10-07T01:11:16.789Z,91.41
2016-10-07T01:11:57.342Z,91.41
2016-10-07T01:12:37.859Z,91.03
2016-10-07T01:13:18.384Z,90.93
2016-10-07T01:13:58.919Z,91.13
2016-10-07T01:14:39.466Z,90.93
2016-10-07T01:15:20.007Z,90.84
2016-10-07T01:16:00.552Z,91.88
2016-10-07T01:16:41.090Z,91.79
2016-10-07T01:17:21.632Z,91.13
2016-10-07T01:18:02.176Z,91.5
2016-10-07T01:18:42.719Z,91.03
2016-10-07T01:19:23.286Z,90.93
2016-10-07T01:20:03.833Z,90.93
2016-10-07T01:20:44.389Z,91.13
2016-10-07T01:21:24.915Z,90.93
2016-10-07T01:22:05.462Z,91.98
2016-10-07T01:22:45.996Z,90.93
2016-10-07T01:23:26.528Z,91.5
2016-10-07T01:24:07.068Z,91.79
2016-10-07T01:24:47.608Z,91.13
2016-10-07T01:25:28.149Z,91.13
2016-10-07T01:26:08.684Z,91.41
2016-10-07T01:26:49.218Z,91.5
2016-10-07T01:27:29.750Z,91.79
2016-10-07T01:28:10.284Z,91.79
2016-10-07T01:28:50.828Z,91.88
2016-10-07T01:29:31.369Z,91.79
2016-10-07T01:30:11.916Z,91.88
2016-10-07T01:30:52.455Z,91.69
2016-10-07T01:31:32.999Z,91.69
2016-10-07T01:32:13.541Z,91.79
2016-10-07T01:32:54.075Z,91.69
2016-10-07T01:33:34.623Z,91.6
2016-10-07T01:34:15.163Z,91.69
2016-10-07T01:34:55.701Z,91.6
2016-10-07T01:35:36.245Z,91.41
2016-10-07T01:36:16.792Z,91.41
2016-10-07T01:36:57.329Z,91.5
2016-10-07T01:37:37.887Z,91.5
2016-10-07T01:38:18.427Z,91.98
2016-10-07T01:38:58.963Z,91.22
2016-10-07T01:39:39.495Z,91.98
2016-10-07T01:40:20.029Z,92.17
2016-10-07T01:41:00.562Z,92.17
2016-10-07T01:41:41.111Z,91.88
2016-10-07T01:42:21.642Z,91.79
2016-10-07T01:43:02.192Z,91.88
2016-10-07T01:43:42.741Z,91.88
2016-10-07T01:44:23.269Z,92.08
2016-10-07T01:45:03.809Z,92.08
2016-10-07T01:45:44.346Z,91.98
2016-10-07T01:46:24.870Z,91.88
2016-10-07T01:47:05.416Z,91.98
2016-10-07T01:47:45.947Z,91.98
2016-10-07T01:48:26.495Z,91.69
2016-10-07T01:49:07.036Z,91.6
2016-10-07T01:49:47.576Z,91.6
2016-10-07T01:50:28.122Z,91.6
2016-10-07T01:51:08.663Z,91.79
2016-10-07T01:51:49.200Z,91.79
2016-10-07T01:52:29.740Z,91.79
2016-10-07T01:53:10.281Z,91.98
2016-10-07T01:53:50.823Z,91.5
2016-10-07T01:54:31.370Z,92.17
2016-10-07T01:55:11.906Z,91.98
2016-10-07T01:55:52.451Z,91.5
2016-10-07T01:56:32.988Z,91.98
2016-10-07T01:57:13.532Z,91.98
2016-10-07T01:57:54.073Z,92.08
2016-10-07T01:58:34.620Z,91.98
2016-10-07T01:59:15.167Z,91.98
2016-10-07T01:59:55.701Z,91.6
2016-10-07T02:00:36.244Z,91.6
2016-10-07T02:01:16.783Z,92.08
2016-10-07T02:01:57.331Z,92.17
2016-10-07T02:02:37.865Z,92.08
2016-10-07T02:03:18.408Z,91.98
2016-10-07T02:03:58.948Z,92.08
2016-10-07T02:04:39.497Z,91.98
2016-10-07T02:05:20.038Z,92.17
2016-10-07T02:06:00.581Z,92.27
2016-10-07T02:06:41.123Z,92.17
2016-10-07T02:07:21.681Z,91.98
2016-10-07T02:08:02.220Z,92.27
2016-10-07T02:08:42.757Z,92.17
2016-10-07T02:09:23.298Z,91.88
2016-10-07T02:10:03.837Z,92.46
2016-10-07T02:10:44.376Z,92.46
2016-10-07T02:11:24.917Z,92.46
2016-10-07T02:12:05.460Z,92.08
2016-10-07T02:12:46.005Z,92.17
2016-10-07T02:13:26.548Z,92.27
2016-10-07T02:14:07.087Z,92.17
2016-10-07T02:14:47.631Z,92.17
2016-10-07T02:15:28.173Z,92.36
2016-10-07T02:16:08.693Z,92.46
2016-10-07T02:16:49.243Z,92.36
2016-10-07T02:17:29.786Z,91.98
2016-10-07T02:18:10.324Z,92.08
2016-10-07T02:18:50.872Z,92.27
2016-10-07T02:19:31.414Z,92.08
2016-10-07T02:20:11.953Z,92.17
2016-10-07T02:20:52.488Z,92.17
2016-10-07T02:21:33.024Z,92.08
2016-10-07T02:22:13.570Z,92.17
2016-10-07T02:22:54.105Z,91.98
2016-10-07T02:23:34.649Z,91.98
2016-10-07T02:24:15.188Z,92.17
2016-10-07T02:24:55.730Z,92.17
2016-10-07T02:25:36.267Z,92.08
2016-10-07T02:26:16.807Z,92.27
2016-10-07T02:26:57.347Z,92.17
2016-10-07T02:27:37.901Z,91.98
2016-10-07T02:28:18.437Z,92.17
2016-10-07T02:28:58.968Z,92.17
2016-10-07T02:29:39.505Z,91.98
2016-10-07T02:30:20.046Z,92.36
2016-10-07T02:31:00.589Z,91.98
2016-10-07T02:31:41.134Z,91.98
2016-10-07T02:32:21.673Z,92.17
2016-10-07T02:33:02.213Z,92.08
2016-10-07T02:33:42.731Z,92.17
2016-10-07T02:34:23.272Z,91.98
2016-10-07T02:35:03.813Z,92.27
2016-10-07T02:35:44.363Z,92.17
2016-10-07T02:36:24.894Z,92.08
2016-10-07T02:37:05.434Z,92.65
2016-10-07T02:37:45.972Z,92.84
2016-10-07T02:38:26.518Z,92.84
2016-10-07T02:39:07.059Z,92.55
2016-10-07T02:39:47.606Z,92.65
2016-10-07T02:40:28.142Z,92.65
2016-10-07T02:41:08.685Z,92.84
2016-10-07T02:41:49.217Z,92.65
2016-10-07T02:42:29.756Z,92.46
2016-10-07T02:43:10.302Z,92.36
2016-10-07T02:43:50.844Z,92.55
2016-10-07T02:44:31.389Z,92.65
2016-10-07T02:45:11.928Z,92.36
2016-10-07T02:45:52.461Z,92.36
2016-10-07T02:46:33.001Z,92.55
2016-10-07T02:47:13.541Z,92.55
2016-10-07T02:47:54.075Z,92.55
2016-10-07T02:48:34.614Z,92.55
2016-10-07T02:49:15.154Z,92.46
2016-10-07T02:49:55.695Z,92.74
2016-10-07T02:50:36.240Z,92.46
2016-10-07T02:51:16.773Z,92.46
2016-10-07T02:51:57.315Z,92.17
2016-10-07T02:52:37.851Z,92.17
2016-10-07T02:53:18.389Z,92.46
2016-10-07T02:53:58.929Z,92.36
2016-10-07T02:54:39.461Z,92.27
2016-10-07T02:55:20.007Z,92.36
2016-10-07T02:56:00.546Z,92.36
2016-10-07T02:56:41.090Z,92.36
2016-10-07T02:57:21.629Z,92.08
2016-10-07T02:58:02.167Z,91.98
2016-10-07T02:58:42.708Z,92.36
2016-10-07T02:59:23.248Z,91.98
2016-10-07T03:00:03.792Z,91.98
2016-10-07T03:00:44.325Z,92.36
2016-10-07T03:01:24.889Z,91.98
2016-10-07T03:02:05.401Z,91.88
2016-10-07T03:02:45.939Z,92.46
2016-10-07T03:03:26.480Z,92.84
2016-10-07T03:04:07.030Z,92.36
2016-10-07T03:04:47.562Z,92.74
2016-10-07T03:05:28.097Z,92.74
2016-10-07T03:06:08.636Z,92.74
2016-10-07T03:06:49.177Z,92.46
2016-10-07T03:07:29.720Z,92.46
2016-10-07T03:08:10.270Z,92.55
2016-10-07T03:08:50.819Z,92.65
2016-10-07T03:09:31.359Z,92.65
2016-10-07T03:10:11.909Z,92.36
2016-10-07T03:10:52.447Z,92.46
2016-10-07T03:11:32.989Z,92.27
2016-10-07T03:12:13.544Z,92.46
2016-10-07T03:12:54.069Z,92.93
2016-10-07T03:13:34.617Z,92.36
2016-10-07T03:14:15.146Z,93.03
2016-10-07T03:14:55.681Z,92.65
2016-10-07T03:15:36.226Z,93.03
2016-10-07T03:16:16.769Z,93.03
2016-10-07T03:16:57.309Z,93.03
2016-10-07T03:17:37.849Z,92.55
2016-10-07T03:18:18.394Z,92.84
2016-10-07T03:18:58.925Z,92.74
2016-10-07T03:19:39.466Z,93.03
2016-10-07T03:20:20.005Z,93.03
2016-10-07T03:21:00.541Z,92.65
2016-10-07T03:21:41.082Z,93.03
2016-10-07T03:22:21.623Z,92.84
2016-10-07T03:23:02.168Z,92.84
2016-10-07T03:23:42.711Z,92.46
2016-10-07T03:24:23.250Z,92.84
2016-10-07T03:25:03.790Z,92.84
2016-10-07T03:25:44.329Z,92.84
2016-10-07T03:26:24.863Z,92.84
2016-10-07T03:27:05.408Z,93.03
2016-10-07T03:27:45.950Z,92.55
2016-10-07T03:28:26.492Z,92.84
2016-10-07T03:29:07.040Z,92.55
2016-10-07T03:29:47.583Z,92.55
2016-10-07T03:30:28.131Z,92.46
2016-10-07T03:31:08.682Z,92.84
2016-10-07T03:31:49.223Z,92.55
2016-10-07T03:32:29.770Z,93.03
2016-10-07T03:33:10.312Z,93.03
2016-10-07T03:33:50.859Z,92.84
2016-10-07T03:34:31.391Z,92.55
2016-10-07T03:35:11.929Z,92.55
2016-10-07T03:35:52.474Z,92.84
2016-10-07T03:36:32.999Z,93.03
2016-10-07T03:37:13.539Z,93.12
2016-10-07T03:37:54.078Z,93.03
2016-10-07T03:38:34.615Z,93.03
2016-10-07T03:39:15.161Z,92.84
2016-10-07T03:39:55.703Z,93.03
2016-10-07T03:40:36.233Z,93.12
2016-10-07T03:41:16.774Z,92.84
2016-10-07T03:41:57.314Z,93.03
2016-10-07T03:42:37.850Z,93.03
2016-10-07T03:43:18.391Z,92.65
2016-10-07T03:43:58.947Z,92.65
2016-10-07T03:44:39.482Z,92.65
2016-10-07T03:45:20.021Z,92.65
2016-10-07T03:46:00.562Z,92.65
2016-10-07T03:46:41.089Z,92.74
2016-10-07T03:47:21.628Z,92.74
2016-10-07T03:48:02.177Z,92.84
2016-10-07T03:48:42.719Z,92.84
2016-10-07T03:49:23.269Z,92.93
2016-10-07T03:50:03.815Z,92.84
2016-10-07T03:50:44.357Z,92.84
2016-10-07T03:51:24.901Z,93.03
2016-10-07T03:52:05.436Z,92.84
2016-10-07T03:52:45.968Z,92.74
2016-10-07T03:53:26.503Z,92.74
2016-10-07T03:54:07.043Z,92.84
2016-10-07T03:54:47.583Z,92.84
2016-10-07T03:55:28.136Z,92.84
2016-10-07T03:56:08.672Z,93.03
2016-10-07T03:56:49.215Z,92.55
2016-10-07T03:57:29.756Z,92.65
2016-10-07T03:58:10.298Z,92.65
2016-10-07T03:58:50.834Z,92.74
2016-10-07T03:59:31.384Z,93.51
2016-10-07T04:00:11.918Z,93.51
2016-10-07T04:00:52.460Z,93.22
2016-10-07T04:01:33.011Z,93.41
2016-10-07T04:02:13.543Z,93.32
2016-10-07T04:02:54.078Z,93.12
2016-10-07T04:03:34.615Z,93.03
2016-10-07T04:04:15.153Z,93.51
2016-10-07T04:04:55.698Z,93.12
2016-10-07T04:05:36.241Z,93.22
2016-10-07T04:06:16.792Z,93.22
2016-10-07T04:06:57.341Z,93.03
2016-10-07T04:07:37.880Z,93.03
2016-10-07T04:08:18.418Z,93.41
2016-10-07T04:08:58.948Z,93.32
2016-10-07T04:09:39.490Z,93.41
2016-10-07T04:10:20.029Z,93.41
2016-10-07T04:11:00.574Z,93.32
2016-10-07T04:11:41.117Z,93.51
2016-10-07T04:12:21.658Z,93.32
2016-10-07T04:13:02.200Z,93.32
2016-10-07T04:13:42.740Z,93.41
2016-10-07T04:14:23.276Z,93.32
2016-10-07T04:15:03.822Z,93.32
2016-10-07T04:15:44.378Z,93.41
2016-10-07T04:16:24.925Z,93.32
2016-10-07T04:17:05.470Z,92.74
2016-10-07T04:17:46.015Z,93.32
2016-10-07T04:18:26.559Z,93.32
2016-10-07T04:19:07.103Z,92.65
2016-10-07T04:19:47.642Z,92.65
2016-10-07T04:20:28.178Z,93.6
2016-10-07T04:21:08.730Z,92.65
2016-10-07T04:21:49.268Z,92.55
2016-10-07T04:22:29.797Z,92.55
2016-10-07T04:23:10.335Z,92.46
2016-10-07T04:23:50.867Z,92.55
2016-10-07T04:24:31.414Z,93.6
2016-10-07T04:25:11.964Z,93.32
2016-10-07T04:25:52.509Z,93.51
2016-10-07T04:26:33.048Z,93.32
2016-10-07T04:27:13.590Z,93.51
2016-10-07T04:27:54.125Z,93.6
2016-10-07T04:28:34.643Z,92.84
2016-10-07T04:29:15.174Z,92.65
2016-10-07T04:29:55.729Z,93.22
2016-10-07T04:30:36.262Z,93.51
2016-10-07T04:31:16.803Z,93.32
2016-10-07T04:31:57.363Z,93.32
2016-10-07T04:32:37.905Z,93.32
2016-10-07T04:33:18.450Z,93.51
2016-10-07T04:33:58.993Z,93.41
2016-10-07T04:34:39.531Z,93.41
2016-10-07T04:35:20.046Z,93.32
2016-10-07T04:36:00.584Z,93.41
2016-10-07T04:36:41.285Z,93.51
2016-10-07T04:37:21.823Z,93.41
2016-10-07T04:38:02.355Z,93.41
2016-10-07T04:38:42.882Z,93.41
2016-10-07T04:39:23.409Z,93.03
2016-10-07T04:40:03.975Z,92.93
2016-10-07T04:40:44.513Z,92.93
2016-10-07T04:41:25.065Z,93.22
2016-10-07T04:42:05.595Z,93.12
2016-10-07T04:42:46.127Z,93.12
2016-10-07T04:43:26.660Z,93.41
2016-10-07T04:44:07.199Z,93.32
2016-10-07T04:44:47.748Z,93.22
2016-10-07T04:45:28.271Z,93.22
2016-10-07T04:46:08.819Z,93.41
2016-10-07T04:46:49.360Z,93.41
2016-10-07T04:47:29.913Z,93.22
2016-10-07T04:48:10.446Z,93.22
2016-10-07T04:48:50.996Z,93.12
2016-10-07T04:49:31.552Z,93.41
2016-10-07T04:50:12.080Z,93.32
2016-10-07T04:50:52.617Z,93.12
2016-10-07T04:51:33.165Z,93.12
2016-10-07T04:52:13.702Z,93.22
2016-10-07T04:52:54.252Z,93.41
2016-10-07T04:53:34.777Z,93.41
2016-10-07T04:54:15.318Z,93.32
2016-10-07T04:54:55.853Z,93.7
2016-10-07T04:55:36.398Z,93.41
2016-10-07T04:56:16.946Z,93.51
2016-10-07T04:56:57.481Z,93.51
2016-10-07T04:57:38.022Z,93.79
2016-10-07T04:58:18.554Z,93.6
2016-10-07T04:58:59.087Z,93.7
2016-10-07T04:59:39.616Z,93.32
2016-10-07T05:00:20.156Z,93.41
2016-10-07T05:01:00.675Z,93.22
2016-10-07T05:01:41.230Z,93.51
2016-10-07T05:02:21.771Z,93.51
2016-10-07T05:03:02.304Z,93.51
2016-10-07T05:03:42.853Z,93.51
2016-10-07T05:04:23.396Z,93.22
2016-10-07T05:05:03.933Z,93.51
2016-10-07T05:05:44.471Z,93.51
2016-10-07T05:06:25.012Z,93.51
2016-10-07T05:07:05.551Z,93.51
2016-10-07T05:07:46.086Z,93.41
2016-10-07T05:08:26.627Z,93.32
2016-10-07T05:09:07.155Z,93.51
2016-10-07T05:09:47.695Z,93.51
2016-10-07T05:10:28.237Z,93.41
2016-10-07T05:11:08.777Z,93.41
2016-10-07T05:11:49.315Z,93.32
2016-10-07T05:12:29.856Z,93.51
2016-10-07T05:13:10.390Z,93.12
2016-10-07T05:13:50.932Z,93.12
2016-10-07T05:14:31.473Z,93.32
2016-10-07T05:15:12.013Z,93.32
2016-10-07T05:15:52.542Z,93.41
2016-10-07T05:16:33.093Z,93.12
2016-10-07T05:17:13.625Z,93.32
2016-10-07T05:17:54.170Z,93.22
2016-10-07T05:18:34.739Z,93.32
2016-10-07T05:19:15.286Z,93.32
2016-10-07T05:19:55.823Z,93.32
2016-10-07T05:20:36.366Z,93.32
2016-10-07T05:21:16.901Z,93.32
2016-10-07T05:21:57.432Z,93.22
2016-10-07T05:22:37.972Z,93.6
2016-10-07T05:23:18.521Z,93.51
2016-10-07T05:23:59.061Z,93.6
2016-10-07T05:24:39.601Z,93.7
2016-10-07T05:25:20.142Z,93.6
2016-10-07T05:26:00.680Z,93.79
2016-10-07T05:26:41.224Z,93.6
2016-10-07T05:27:21.766Z,93.6
2016-10-07T05:28:02.307Z,93.51
2016-10-07T05:28:42.845Z,93.51
2016-10-07T05:29:23.374Z,93.6
2016-10-07T05:30:03.913Z,93.22
2016-10-07T05:30:44.455Z,93.03
2016-10-07T05:31:24.987Z,93.41
2016-10-07T05:32:05.511Z,93.32
2016-10-07T05:32:46.049Z,93.22
2016-10-07T05:33:26.588Z,93.51
2016-10-07T05:34:07.142Z,93.6
2016-10-07T05:34:47.686Z,93.65
2016-10-07T05:35:28.223Z,93.65
2016-10-07T05:36:08.762Z,94.03
2016-10-07T05:36:49.302Z,93.37
2016-10-07T05:37:29.847Z,93.84
2016-10-07T05:38:10.399Z,94.03
2016-10-07T05:38:50.948Z,93.65
2016-10-07T05:39:31.472Z,93.84
2016-10-07T05:40:12.032Z,93.93
2016-10-07T05:40:52.561Z,94.03
2016-10-07T05:41:33.103Z,93.93
2016-10-07T05:42:13.639Z,93.46
2016-10-07T05:42:54.175Z,94.13
2016-10-07T05:43:34.715Z,93.93
2016-10-07T05:44:15.259Z,93.84
2016-10-07T05:44:55.852Z,94.03
2016-10-07T05:45:36.401Z,94.32
2016-10-07T05:46:16.947Z,94.22
2016-10-07T05:46:57.496Z,93.93
2016-10-07T05:47:38.064Z,94.03
2016-10-07T05:48:18.577Z,93.74
2016-10-07T05:48:59.126Z,94.32
2016-10-07T05:49:39.664Z,94.7
2016-10-07T05:50:20.219Z,94.98
2016-10-07T05:51:00.725Z,94.41
2016-10-07T05:51:41.282Z,94.32
2016-10-07T05:52:21.817Z,95.17
2016-10-07T05:53:02.335Z,94.79
2016-10-07T05:53:42.879Z,95.36
2016-10-07T05:54:23.411Z,94.98
2016-10-07T05:55:03.951Z,95.17
2016-10-07T05:55:44.568Z,95.17
2016-10-07T05:56:25.115Z,94.7
2016-10-07T05:57:05.653Z,94.98
2016-10-07T05:57:46.192Z,95.65
2016-10-07T05:58:26.785Z,95.46
2016-10-07T05:59:07.306Z,94.98
2016-10-07T05:59:47.855Z,94.89
2016-10-07T06:00:28.389Z,95.17
2016-10-07T06:01:08.936Z,94.98
2016-10-07T06:01:49.522Z,95.17
2016-10-07T06:04:18.975Z,95.46
2016-10-07T06:04:59.516Z,95.17
2016-10-07T06:05:40.040Z,94.98
2016-10-07T06:06:20.582Z,94.98
2016-10-07T06:07:01.113Z,95.56
2016-10-07T06:07:41.658Z,95.56
2016-10-07T06:08:22.200Z,94.32
2016-10-07T06:09:02.746Z,94.6
2016-10-07T06:09:43.275Z,94.98
2016-10-07T06:10:23.818Z,95.56
2016-10-07T06:11:04.360Z,95.27
2016-10-07T06:11:44.903Z,95.17
2016-10-07T06:12:25.460Z,95.08
2016-10-07T06:13:05.999Z,94.7
2016-10-07T06:13:46.531Z,95.27
2016-10-07T06:14:27.069Z,95.27
2016-10-07T06:15:07.605Z,95.08
2016-10-07T06:15:48.144Z,95.08
2016-10-07T06:16:28.703Z,95.56
2016-10-07T06:17:09.246Z,95.75
2016-10-07T06:17:49.798Z,95.75
2016-10-07T06:18:30.348Z,95.75
2016-10-07T06:19:10.891Z,95.08
2016-10-07T06:19:51.440Z,95.75
2016-10-07T06:20:31.976Z,95.08
2016-10-07T06:21:12.507Z,95.08
2016-10-07T06:21:53.049Z,95.46
2016-10-07T06:22:33.587Z,95.08
2016-10-07T06:23:14.133Z,95.75
2016-10-07T06:23:54.668Z,95.17
2016-10-07T06:24:35.239Z,95.36
2016-10-07T06:25:15.782Z,95.56
2016-10-07T06:25:56.324Z,95.46
2016-10-07T06:26:36.861Z,95.41
2016-10-07T06:27:17.404Z,95.36
2016-10-07T06:27:57.949Z,95.46
2016-10-07T06:28:38.490Z,95.27
2016-10-07T06:29:19.034Z,95.61
2016-10-07T06:29:59.563Z,95.22
2016-10-07T06:30:40.104Z,95.22
2016-10-07T06:31:20.643Z,95.12
2016-10-07T06:32:01.192Z,95.51
2016-10-07T06:32:41.717Z,95.32
2016-10-07T06:33:22.260Z,95.7
2016-10-07T06:34:02.807Z,95.32
2016-10-07T06:34:43.344Z,95.7
2016-10-07T06:35:23.887Z,95.7
2016-10-07T06:36:04.411Z,95.51
2016-10-07T06:36:44.942Z,94.84
2016-10-07T06:37:25.491Z,95.22
2016-10-07T06:38:06.020Z,95.12
2016-10-07T06:38:46.562Z,95.03
2016-10-07T06:39:27.113Z,94.93
2016-10-07T06:40:07.648Z,95.32
2016-10-07T06:40:48.192Z,95.41
2016-10-07T06:41:28.724Z,95.41
2016-10-07T06:42:09.264Z,95.22
2016-10-07T06:42:49.802Z,94.84
2016-10-07T06:43:30.339Z,94.74
2016-10-07T06:44:10.878Z,94.84
2016-10-07T06:44:51.403Z,94.37
2016-10-07T06:45:31.932Z,94.46
2016-10-07T06:46:12.483Z,94.65
2016-10-07T06:46:53.021Z,94.37
2016-10-07T06:47:33.569Z,94.65
2016-10-07T06:48:14.104Z,94.56
2016-10-07T06:48:54.640Z,94.56
2016-10-07T06:49:35.182Z,94.56
2016-10-07T06:50:15.724Z,94.93
2016-10-07T06:50:56.267Z,94.93
2016-10-07T06:51:36.809Z,94.74
2016-10-07T06:52:17.338Z,94.74
2016-10-07T06:52:57.887Z,94.93
2016-10-07T06:53:38.421Z,94.93
2016-10-07T06:54:18.957Z,94.93
2016-10-07T06:54:59.493Z,94.65
2016-10-07T06:55:40.037Z,94.65
2016-10-07T06:56:20.579Z,94.65
2016-10-07T06:57:01.115Z,94.56
2016-10-07T06:57:41.637Z,95.03
2016-10-07T06:58:22.194Z,94.93
2016-10-07T06:59:02.732Z,94.93
2016-10-07T06:59:43.250Z,94.93
2016-10-07T07:00:23.790Z,94.84
2016-10-07T07:01:04.334Z,94.93
2016-10-07T07:01:44.883Z,94.84
2016-10-07T07:02:25.420Z,94.93
2016-10-07T07:03:05.960Z,94.84
2016-10-07T07:03:46.504Z,94.98
2016-10-07T07:04:27.038Z,94.74
2016-10-07T07:05:07.582Z,94.37
2016-10-07T07:05:48.121Z,94.56
2016-10-07T07:06:28.645Z,94.56
2016-10-07T07:07:09.189Z,94.37
2016-10-07T07:07:49.737Z,94.6
2016-10-07T07:08:30.285Z,94.84
2016-10-07T07:09:10.824Z,94.37
2016-10-07T07:09:51.367Z,93.79
2016-10-07T07:10:31.916Z,93.79
2016-10-07T07:11:12.444Z,94.22
2016-10-07T07:11:52.977Z,94.08
2016-10-07T07:12:33.522Z,93.93
2016-10-07T07:13:14.060Z,94.27
2016-10-07T07:13:54.601Z,93.88
2016-10-07T07:14:35.143Z,94.03
2016-10-07T07:15:15.679Z,94.32
2016-10-07T07:15:56.225Z,94.32
2016-10-07T07:16:36.765Z,94.12
2016-10-07T07:17:17.300Z,93.93
2016-10-07T07:17:57.835Z,94.41
2016-10-07T07:18:38.376Z,94.32
2016-10-07T07:19:18.929Z,93.93
2016-10-07T07:19:59.469Z,94.12
2016-10-07T07:20:40.012Z,93.93
2016-10-07T07:21:20.552Z,94.03
2016-10-07T07:22:01.102Z,93.93
2016-10-07T07:22:41.652Z,93.65
2016-10-07T07:23:22.188Z,93.93
2016-10-07T07:24:02.730Z,93.93
2016-10-07T07:24:43.276Z,94.03
2016-10-07T07:25:23.829Z,93.84
2016-10-07T07:26:04.369Z,93.74
2016-10-07T07:26:44.929Z,93.74
2016-10-07T07:27:25.461Z,93.36
2016-10-07T07:28:05.998Z,93.74
2016-10-07T07:28:46.538Z,93.55
2016-10-07T07:29:27.074Z,93.55
2016-10-07T07:30:07.619Z,93.74
2016-10-07T07:30:48.163Z,93.84
2016-10-07T07:31:28.710Z,93.46
2016-10-07T07:32:09.245Z,93.27
2016-10-07T07:32:49.789Z,93.36
2016-10-07T07:33:30.316Z,92.6
2016-10-07T07:34:10.854Z,93.27
2016-10-07T07:34:51.393Z,92.6
2016-10-07T07:35:31.925Z,92.41
2016-10-07T07:36:12.474Z,92.6
2016-10-07T07:36:53.011Z,92.41
2016-10-07T07:37:33.550Z,92.41
2016-10-07T07:38:14.092Z,92.5
2016-10-07T07:38:54.625Z,92.79
2016-10-07T07:39:35.179Z,92.12
2016-10-07T07:40:15.700Z,92.5
2016-10-07T07:40:56.249Z,92.79
2016-10-07T07:41:36.789Z,92.6
2016-10-07T07:42:17.330Z,92.69
2016-10-07T07:42:57.880Z,92.03
2016-10-07T07:43:38.429Z,92.32
2016-10-07T07:44:18.975Z,92.22
2016-10-07T07:44:59.521Z,92.22
2016-10-07T07:45:40.069Z,92.5
2016-10-07T07:46:20.611Z,92.22
2016-10-07T07:47:01.154Z,92.22
2016-10-07T07:47:41.698Z,92.6
2016-10-07T07:48:22.233Z,92.5
2016-10-07T07:49:02.776Z,92.32
2016-10-07T07:49:43.322Z,92.32
2016-10-07T07:50:23.858Z,92.36
2016-10-07T07:51:04.401Z,92.26
2016-10-07T07:51:44.939Z,92.03
2016-10-07T07:52:25.479Z,91.88
2016-10-07T07:53:06.018Z,91.83
2016-10-07T07:53:46.552Z,92.07
2016-10-07T07:54:27.097Z,91.98
2016-10-07T07:55:07.618Z,92.07
2016-10-07T07:55:48.184Z,91.6
2016-10-07T07:56:28.715Z,91.69
2016-10-07T07:57:09.255Z,91.6
2016-10-07T07:57:49.794Z,91.6
2016-10-07T07:58:30.331Z,91.5
2016-10-07T07:59:10.870Z,91.69
2016-10-07T07:59:51.408Z,91.78
2016-10-07T08:00:31.953Z,91.69
2016-10-07T08:01:12.490Z,91.21
2016-10-07T08:01:53.033Z,91.21
2016-10-07T08:02:33.579Z,91.21
2016-10-07T08:03:14.120Z,90.83
2016-10-07T08:03:54.659Z,90.83
2016-10-07T08:04:35.200Z,90.93
2016-10-07T08:05:15.750Z,91.02
2016-10-07T08:05:56.287Z,91.12
2016-10-07T08:06:36.829Z,91.31
2016-10-07T08:07:17.371Z,91.31
2016-10-07T08:07:57.918Z,91.02
2016-10-07T08:08:38.451Z,90.36
2016-10-07T08:09:18.992Z,90.73
2016-10-07T08:09:59.527Z,90.64
2016-10-07T08:10:40.069Z,90.93
2016-10-07T08:11:20.707Z,90.88
2016-10-07T08:12:01.250Z,90.59
2016-10-07T08:12:41.788Z,90.4
2016-10-07T08:13:22.330Z,90.5
2016-10-07T08:14:02.877Z,90.5
2016-10-07T08:14:43.415Z,89.54
2016-10-07T08:15:23.956Z,90.02
2016-10-07T08:16:04.489Z,89.92
2016-10-07T08:16:45.036Z,90.11
2016-10-07T08:17:25.572Z,90.11
2016-10-07T08:18:06.116Z,89.54
2016-10-07T08:18:46.652Z,89.92
2016-10-07T08:19:27.205Z,89.73
2016-10-07T08:20:07.746Z,90.02
2016-10-07T08:20:48.293Z,89.83
2016-10-07T08:21:28.838Z,89.83
2016-10-07T08:22:09.382Z,89.25
2016-10-07T08:22:49.903Z,89.16
2016-10-07T08:23:30.441Z,89.45
2016-10-07T08:24:10.980Z,89.25
2016-10-07T08:24:51.523Z,89.16
2016-10-07T08:25:32.050Z,89.16
2016-10-07T08:26:12.586Z,89.25
2016-10-07T08:26:53.126Z,89.16
2016-10-07T08:27:33.657Z,89.45
2016-10-07T08:28:14.206Z,89.35
2016-10-07T08:28:54.746Z,89.45
2016-10-07T08:29:35.285Z,89.35
2016-10-07T08:30:15.828Z,88.87
2016-10-07T08:30:56.376Z,89.16
2016-10-07T08:31:36.918Z,88.97
2016-10-07T08:32:17.462Z,89.35
2016-10-07T08:32:57.978Z,89.54
2016-10-07T08:33:38.528Z,89.16
2016-10-07T08:34:19.058Z,88.82
2016-10-07T08:34:59.607Z,89.01
2016-10-07T08:35:40.134Z,89.01
2016-10-07T08:36:20.686Z,88.63
2016-10-07T08:37:01.217Z,88.82
2016-10-07T08:37:41.763Z,88.34
2016-10-07T08:38:22.309Z,88.15
2016-10-07T08:39:02.861Z,88.34
2016-10-07T08:39:43.403Z,88.44
2016-10-07T08:40:23.953Z,88.34
2016-10-07T08:41:04.497Z,88.06
2016-10-07T08:41:45.034Z,87.87
2016-10-07T08:42:25.564Z,88.25
2016-10-07T08:43:06.107Z,87.58
2016-10-07T08:43:46.636Z,87.68
2016-10-07T08:44:27.180Z,87.96
2016-10-07T08:45:07.710Z,87.68
2016-10-07T08:45:48.256Z,87.68
2016-10-07T08:46:28.788Z,87.58
2016-10-07T08:47:09.334Z,87.48
2016-10-07T08:47:49.880Z,87.29
2016-10-07T08:48:30.413Z,87.39
2016-10-07T08:49:10.967Z,87.29
2016-10-07T08:49:51.501Z,87.29
2016-10-07T08:50:32.046Z,87.39
2016-10-07T08:51:12.592Z,87.77
2016-10-07T08:51:53.133Z,87.1
2016-10-07T08:52:33.679Z,87.1
2016-10-07T08:53:14.218Z,87.29
2016-10-07T08:53:54.771Z,87.1
2016-10-07T08:54:35.314Z,87.1
2016-10-07T08:55:15.864Z,87.1
2016-10-07T08:55:56.414Z,86.91
2016-10-07T08:56:36.955Z,86.91